sensor_id;sensor_type;location;lat;lon;timestamp;pressure;altitude;pressure_sealevel;temperature;humidity
63115;BME280;49208;50.874;6.466;2023-07-08T06:01:27;100462.28;;;19.45;60.06
63115;BME280;49208;50.874;6.466;2023-07-08T06:03:53;100455.09;;;19.32;59.56
63115;BME280;49208;50.874;6.466;2023-07-08T06:06:18;100469.13;;;19.25;60.10
63115;BME280;49208;50.874;6.466;2023-07-08T06:08:43;100462.53;;;19.16;59.96
63115;BME280;49208;50.874;6.466;2023-07-08T06:11:09;100452.28;;;19.08;60.97
63115;BME280;49208;50.874;6.466;2023-07-08T06:13:34;100450.34;;;18.97;61.93
63115;BME280;49208;50.874;6.466;2023-07-08T06:16:00;100449.06;;;18.90;62.31
63115;BME280;49208;50.874;6.466;2023-07-08T06:18:25;100450.47;;;18.83;62.89
63115;BME280;49208;50.874;6.466;2023-07-08T06:20:52;100454.34;;;18.79;62.79
63115;BME280;49208;50.874;6.466;2023-07-08T06:23:17;100459.94;;;18.76;62.41
63115;BME280;49208;50.874;6.466;2023-07-08T06:25:43;100469.75;;;18.77;64.21
63115;BME280;49208;50.874;6.466;2023-07-08T06:28:08;100470.53;;;18.79;64.38
63115;BME280;49208;50.874;6.466;2023-07-08T06:30:33;100464.81;;;18.84;63.40
63115;BME280;49208;50.874;6.466;2023-07-08T06:32:59;100454.00;;;18.96;63.40
63115;BME280;49208;50.874;6.466;2023-07-08T06:35:24;100451.97;;;19.13;63.39
63115;BME280;49208;50.874;6.466;2023-07-08T06:37:49;100448.69;;;19.33;63.16
63115;BME280;49208;50.874;6.466;2023-07-08T06:40:15;100451.00;;;20.01;64.06
63115;BME280;49208;50.874;6.466;2023-07-08T06:42:42;100448.16;;;21.53;63.27
63115;BME280;49208;50.874;6.466;2023-07-08T06:45:08;100446.25;;;23.56;59.15
63115;BME280;49208;50.874;6.466;2023-07-08T06:47:33;100452.41;;;25.51;51.70
63115;BME280;49208;50.874;6.466;2023-07-08T06:49:59;100445.81;;;26.97;44.93
63115;BME280;49208;50.874;6.466;2023-07-08T06:52:24;100456.94;;;28.32;43.83
63115;BME280;49208;50.874;6.466;2023-07-08T06:54:49;100467.69;;;29.24;39.78
63115;BME280;49208;50.874;6.466;2023-07-08T06:57:15;100467.72;;;30.26;41.06
63115;BME280;49208;50.874;6.466;2023-07-08T06:59:40;100474.41;;;31.15;37.48
63115;BME280;49208;50.874;6.466;2023-07-08T07:02:05;100463.38;;;31.75;35.77
63115;BME280;49208;50.874;6.466;2023-07-08T07:04:31;100464.19;;;32.27;35.06
63115;BME280;49208;50.874;6.466;2023-07-08T07:06:57;100464.47;;;32.75;32.71
63115;BME280;49208;50.874;6.466;2023-07-08T07:09:22;100469.97;;;33.25;33.96
63115;BME280;49208;50.874;6.466;2023-07-08T07:11:48;100464.88;;;33.70;30.14
63115;BME280;49208;50.874;6.466;2023-07-08T07:14:13;100469.56;;;32.78;31.59
63115;BME280;49208;50.874;6.466;2023-07-08T07:16:39;100466.09;;;32.05;31.99
63115;BME280;49208;50.874;6.466;2023-07-08T07:19:04;100464.06;;;32.13;31.92
63115;BME280;49208;50.874;6.466;2023-07-08T07:21:29;100471.53;;;32.41;33.13
63115;BME280;49208;50.874;6.466;2023-07-08T07:23:55;100466.34;;;31.58;32.84
63115;BME280;49208;50.874;6.466;2023-07-08T07:26:20;100464.31;;;30.93;34.20
63115;BME280;49208;50.874;6.466;2023-07-08T07:28:45;100474.91;;;30.35;33.13
63115;BME280;49208;50.874;6.466;2023-07-08T07:31:10;100471.25;;;30.66;35.36
63115;BME280;49208;50.874;6.466;2023-07-08T07:33:37;100468.81;;;30.48;35.36
63115;BME280;49208;50.874;6.466;2023-07-08T07:36:02;100481.22;;;29.81;35.83
63115;BME280;49208;50.874;6.466;2023-07-08T07:38:28;100479.91;;;28.64;36.79
63115;BME280;49208;50.874;6.466;2023-07-08T07:40:55;100481.28;;;27.84;39.42
63115;BME280;49208;50.874;6.466;2023-07-08T07:43:21;100485.91;;;27.15;41.02
63115;BME280;49208;50.874;6.466;2023-07-08T07:45:53;100474.66;;;26.92;42.74
63115;BME280;49208;50.874;6.466;2023-07-08T07:48:21;100473.16;;;27.58;41.82
63115;BME280;49208;50.874;6.466;2023-07-08T07:50:48;100473.25;;;28.74;40.77
63115;BME280;49208;50.874;6.466;2023-07-08T07:53:14;100482.72;;;29.92;38.74
63115;BME280;49208;50.874;6.466;2023-07-08T07:55:40;100474.56;;;30.99;39.65
63115;BME280;49208;50.874;6.466;2023-07-08T07:58:05;100470.41;;;31.62;34.96
63115;BME280;49208;50.874;6.466;2023-07-08T08:00:30;100466.75;;;32.07;33.90
63115;BME280;49208;50.874;6.466;2023-07-08T08:02:56;100472.06;;;32.51;35.83
63115;BME280;49208;50.874;6.466;2023-07-08T08:05:21;100475.28;;;32.76;33.72
63115;BME280;49208;50.874;6.466;2023-07-08T08:07:47;100484.34;;;32.92;33.89
63115;BME280;49208;50.874;6.466;2023-07-08T08:10:13;100472.03;;;32.94;34.40
63115;BME280;49208;50.874;6.466;2023-07-08T08:12:39;100476.94;;;32.99;35.05
63115;BME280;49208;50.874;6.466;2023-07-08T08:15:05;100483.13;;;33.01;34.04
63115;BME280;49208;50.874;6.466;2023-07-08T08:17:30;100478.44;;;33.01;33.62
63115;BME280;49208;50.874;6.466;2023-07-08T08:19:55;100477.56;;;32.94;34.07
63115;BME280;49208;50.874;6.466;2023-07-08T08:22:21;100465.28;;;32.69;34.28
63115;BME280;49208;50.874;6.466;2023-07-08T08:24:46;100464.53;;;32.60;34.59
63115;BME280;49208;50.874;6.466;2023-07-08T08:27:12;100460.13;;;32.22;35.02
63115;BME280;49208;50.874;6.466;2023-07-08T08:29:37;100468.50;;;32.14;35.99
63115;BME280;49208;50.874;6.466;2023-07-08T08:32:03;100468.13;;;32.17;34.95
63115;BME280;49208;50.874;6.466;2023-07-08T08:34:28;100472.03;;;32.23;36.40
63115;BME280;49208;50.874;6.466;2023-07-08T08:36:53;100469.69;;;32.05;36.03
63115;BME280;49208;50.874;6.466;2023-07-08T08:39:21;100466.84;;;31.98;35.42
63115;BME280;49208;50.874;6.466;2023-07-08T08:41:46;100478.53;;;32.00;37.24
63115;BME280;49208;50.874;6.466;2023-07-08T08:44:25;100471.16;;;31.86;35.03
63115;BME280;49208;50.874;6.466;2023-07-08T08:47:11;100473.47;;;32.04;36.90
63115;BME280;49208;50.874;6.466;2023-07-08T08:49:46;100484.06;;;32.22;36.74
63115;BME280;49208;50.874;6.466;2023-07-08T08:52:15;100484.41;;;32.34;37.06
63115;BME280;49208;50.874;6.466;2023-07-08T08:54:41;100498.00;;;32.35;35.60
63115;BME280;49208;50.874;6.466;2023-07-08T08:59:56;100489.31;;;32.38;30.78
63115;BME280;49208;50.874;6.466;2023-07-08T09:05:03;100479.81;;;32.19;32.85
63115;BME280;49208;50.874;6.466;2023-07-08T09:07:29;100475.69;;;32.30;32.23
63115;BME280;49208;50.874;6.466;2023-07-08T09:10:11;100472.47;;;32.27;30.24
63115;BME280;49208;50.874;6.466;2023-07-08T09:12:40;100475.47;;;32.53;32.06
63115;BME280;49208;50.874;6.466;2023-07-08T09:15:14;100476.53;;;32.74;31.35
63115;BME280;49208;50.874;6.466;2023-07-08T09:17:40;100473.81;;;33.02;31.09
63115;BME280;49208;50.874;6.466;2023-07-08T09:20:21;100469.59;;;33.06;29.82
63115;BME280;49208;50.874;6.466;2023-07-08T09:22:54;100475.22;;;33.19;33.86
63115;BME280;49208;50.874;6.466;2023-07-08T09:25:30;100478.28;;;33.38;32.04
63115;BME280;49208;50.874;6.466;2023-07-08T09:27:57;100477.47;;;33.44;29.56
63115;BME280;49208;50.874;6.466;2023-07-08T09:30:24;100468.84;;;33.54;29.80
63115;BME280;49208;50.874;6.466;2023-07-08T09:32:50;100465.25;;;33.60;29.97
63115;BME280;49208;50.874;6.466;2023-07-08T09:35:21;100457.19;;;33.58;31.82
63115;BME280;49208;50.874;6.466;2023-07-08T09:37:48;100456.19;;;33.66;29.94
63115;BME280;49208;50.874;6.466;2023-07-08T09:40:21;100457.19;;;33.58;30.16
63115;BME280;49208;50.874;6.466;2023-07-08T09:42:52;100449.78;;;33.66;30.84
63115;BME280;49208;50.874;6.466;2023-07-08T09:45:22;100443.91;;;33.75;30.97
63115;BME280;49208;50.874;6.466;2023-07-08T09:47:52;100446.47;;;33.77;28.76
63115;BME280;49208;50.874;6.466;2023-07-08T09:50:28;100441.78;;;33.84;28.57
63115;BME280;49208;50.874;6.466;2023-07-08T09:52:56;100445.22;;;33.93;28.91
63115;BME280;49208;50.874;6.466;2023-07-08T09:55:26;100438.84;;;33.92;28.09
63115;BME280;49208;50.874;6.466;2023-07-08T09:57:53;100447.56;;;33.96;28.92
63115;BME280;49208;50.874;6.466;2023-07-08T10:00:34;100435.69;;;34.02;29.96
63115;BME280;49208;50.874;6.466;2023-07-08T10:03:27;100436.34;;;34.04;29.32
63115;BME280;49208;50.874;6.466;2023-07-08T10:05:52;100441.88;;;34.11;29.88
63115;BME280;49208;50.874;6.466;2023-07-08T10:08:23;100442.16;;;34.22;29.47
63115;BME280;49208;50.874;6.466;2023-07-08T10:10:57;100430.03;;;34.37;29.84
63115;BME280;49208;50.874;6.466;2023-07-08T10:13:41;100439.38;;;34.36;27.58
63115;BME280;49208;50.874;6.466;2023-07-08T10:16:27;100430.03;;;34.44;27.84
63115;BME280;49208;50.874;6.466;2023-07-08T10:18:53;100432.81;;;34.37;25.82
63115;BME280;49208;50.874;6.466;2023-07-08T10:26:46;100437.03;;;34.19;26.29
63115;BME280;49208;50.874;6.466;2023-07-08T10:29:52;100431.28;;;34.34;27.08
63115;BME280;49208;50.874;6.466;2023-07-08T10:35:17;100432.41;;;34.67;28.09
63115;BME280;49208;50.874;6.466;2023-07-08T10:38:09;100436.44;;;34.84;24.17
63115;BME280;49208;50.874;6.466;2023-07-08T10:40:48;100432.41;;;34.73;25.04
63115;BME280;49208;50.874;6.466;2023-07-08T10:43:44;100443.06;;;34.76;27.65
63115;BME280;49208;50.874;6.466;2023-07-08T10:49:21;100442.63;;;34.73;24.98
63115;BME280;49208;50.874;6.466;2023-07-08T10:54:48;100439.22;;;34.64;26.22
63115;BME280;49208;50.874;6.466;2023-07-08T11:05:52;100430.47;;;34.87;24.96
63115;BME280;49208;50.874;6.466;2023-07-08T11:08:27;100427.09;;;34.78;24.47
63115;BME280;49208;50.874;6.466;2023-07-08T11:11:40;100425.56;;;34.96;26.13
63115;BME280;49208;50.874;6.466;2023-07-08T11:14:14;100430.44;;;35.20;25.15
63115;BME280;49208;50.874;6.466;2023-07-08T11:16:46;100426.19;;;35.25;25.81
63115;BME280;49208;50.874;6.466;2023-07-08T11:19:21;100428.50;;;35.34;25.93
63115;BME280;49208;50.874;6.466;2023-07-08T11:21:50;100425.69;;;35.41;25.17
63115;BME280;49208;50.874;6.466;2023-07-08T11:24:41;100424.59;;;35.42;25.52
63115;BME280;49208;50.874;6.466;2023-07-08T11:30:04;100430.19;;;35.35;24.69
63115;BME280;49208;50.874;6.466;2023-07-08T11:32:32;100425.69;;;35.41;25.14
63115;BME280;49208;50.874;6.466;2023-07-08T11:35:02;100420.16;;;35.41;24.56
63115;BME280;49208;50.874;6.466;2023-07-08T11:37:29;100426.53;;;35.41;25.54
63115;BME280;49208;50.874;6.466;2023-07-08T11:40:06;100421.22;;;35.40;26.36
63115;BME280;49208;50.874;6.466;2023-07-08T11:42:40;100422.41;;;35.64;26.08
63115;BME280;49208;50.874;6.466;2023-07-08T11:45:31;100421.94;;;35.80;25.75
63115;BME280;49208;50.874;6.466;2023-07-08T11:48:29;100424.66;;;35.87;24.83
63115;BME280;49208;50.874;6.466;2023-07-08T11:50:55;100413.19;;;35.77;24.81
63115;BME280;49208;50.874;6.466;2023-07-08T12:01:52;100413.47;;;36.00;25.69
63115;BME280;49208;50.874;6.466;2023-07-08T12:04:29;100409.38;;;36.10;22.81
63115;BME280;49208;50.874;6.466;2023-07-08T12:07:17;100407.72;;;36.02;22.99
63115;BME280;49208;50.874;6.466;2023-07-08T12:10:08;100407.56;;;35.97;23.56
63115;BME280;49208;50.874;6.466;2023-07-08T12:12:37;100405.97;;;35.76;23.46
63115;BME280;49208;50.874;6.466;2023-07-08T12:15:15;100401.72;;;35.73;23.38
63115;BME280;49208;50.874;6.466;2023-07-08T12:17:42;100398.47;;;35.83;23.33
63115;BME280;49208;50.874;6.466;2023-07-08T12:20:21;100393.13;;;35.81;22.85
63115;BME280;49208;50.874;6.466;2023-07-08T12:22:47;100408.44;;;35.91;23.56
63115;BME280;49208;50.874;6.466;2023-07-08T12:25:15;100399.81;;;35.74;22.68
63115;BME280;49208;50.874;6.466;2023-07-08T12:27:43;100391.09;;;35.70;23.91
63115;BME280;49208;50.874;6.466;2023-07-08T12:30:10;100395.31;;;35.73;24.44
63115;BME280;49208;50.874;6.466;2023-07-08T12:32:36;100395.47;;;35.85;23.21
63115;BME280;49208;50.874;6.466;2023-07-08T12:35:02;100396.78;;;35.82;23.02
63115;BME280;49208;50.874;6.466;2023-07-08T12:37:30;100393.34;;;35.87;22.13
63115;BME280;49208;50.874;6.466;2023-07-08T12:39:57;100385.28;;;35.78;22.71
63115;BME280;49208;50.874;6.466;2023-07-08T12:42:30;100378.75;;;35.66;22.50
63115;BME280;49208;50.874;6.466;2023-07-08T12:44:56;100378.97;;;35.65;23.63
63115;BME280;49208;50.874;6.466;2023-07-08T12:47:22;100376.41;;;35.56;23.56
63115;BME280;49208;50.874;6.466;2023-07-08T12:49:47;100381.28;;;35.61;23.21
63115;BME280;49208;50.874;6.466;2023-07-08T12:52:23;100370.66;;;35.65;22.72
63115;BME280;49208;50.874;6.466;2023-07-08T12:54:49;100380.19;;;35.75;22.54
63115;BME280;49208;50.874;6.466;2023-07-08T12:57:16;100379.78;;;35.72;23.40
63115;BME280;49208;50.874;6.466;2023-07-08T12:59:43;100370.81;;;35.76;22.14
63115;BME280;49208;50.874;6.466;2023-07-08T13:02:15;100373.59;;;35.76;23.34
63115;BME280;49208;50.874;6.466;2023-07-08T13:04:43;100364.53;;;35.88;22.39
63115;BME280;49208;50.874;6.466;2023-07-08T13:07:38;100354.25;;;35.70;21.71
63115;BME280;49208;50.874;6.466;2023-07-08T13:10:06;100363.31;;;35.38;22.47
63115;BME280;49208;50.874;6.466;2023-07-08T13:12:34;100356.78;;;35.19;23.42
63115;BME280;49208;50.874;6.466;2023-07-08T13:15:03;100357.00;;;35.18;23.75
63115;BME280;49208;50.874;6.466;2023-07-08T13:17:31;100362.25;;;35.39;23.26
63115;BME280;49208;50.874;6.466;2023-07-08T13:19:57;100364.28;;;35.51;23.28
63115;BME280;49208;50.874;6.466;2023-07-08T13:22:23;100368.22;;;35.81;24.25
63115;BME280;49208;50.874;6.466;2023-07-08T13:24:58;100369.75;;;36.02;23.04
63115;BME280;49208;50.874;6.466;2023-07-08T13:27:25;100365.25;;;36.08;22.68
63115;BME280;49208;50.874;6.466;2023-07-08T13:29:51;100368.97;;;35.95;23.81
63115;BME280;49208;50.874;6.466;2023-07-08T13:32:17;100367.19;;;35.76;23.82
63115;BME280;49208;50.874;6.466;2023-07-08T13:34:43;100364.00;;;35.72;25.37
63115;BME280;49208;50.874;6.466;2023-07-08T13:37:11;100366.81;;;35.59;24.01
63115;BME280;49208;50.874;6.466;2023-07-08T13:39:42;100364.19;;;35.32;23.99
63115;BME280;49208;50.874;6.466;2023-07-08T13:42:08;100365.53;;;35.16;23.62
63115;BME280;49208;50.874;6.466;2023-07-08T13:44:34;100365.16;;;34.93;25.46
63115;BME280;49208;50.874;6.466;2023-07-08T13:47:00;100366.25;;;34.52;23.92
63115;BME280;49208;50.874;6.466;2023-07-08T13:49:44;100376.91;;;34.35;25.11
63115;BME280;49208;50.874;6.466;2023-07-08T13:54:44;100362.34;;;33.93;25.34
63115;BME280;49208;50.874;6.466;2023-07-08T13:57:12;100366.63;;;34.02;25.31
63115;BME280;49208;50.874;6.466;2023-07-08T13:59:38;100361.34;;;34.14;26.36
63115;BME280;49208;50.874;6.466;2023-07-08T14:02:19;100359.66;;;34.26;26.43
63115;BME280;49208;50.874;6.466;2023-07-08T14:04:47;100367.31;;;34.24;28.93
63115;BME280;49208;50.874;6.466;2023-07-08T14:07:18;100371.97;;;34.24;26.49
63115;BME280;49208;50.874;6.466;2023-07-08T14:09:44;100362.41;;;34.19;25.28
63115;BME280;49208;50.874;6.466;2023-07-08T14:12:10;100362.22;;;34.14;26.23
63115;BME280;49208;50.874;6.466;2023-07-08T14:14:36;100368.97;;;34.05;27.59
63115;BME280;49208;50.874;6.466;2023-07-08T14:17:01;100371.06;;;33.96;27.53
63115;BME280;49208;50.874;6.466;2023-07-08T14:19:30;100372.34;;;33.94;27.73
63115;BME280;49208;50.874;6.466;2023-07-08T14:22:00;100366.00;;;33.93;26.52
63115;BME280;49208;50.874;6.466;2023-07-08T14:24:25;100367.69;;;33.94;26.19
63115;BME280;49208;50.874;6.466;2023-07-08T14:26:52;100371.09;;;34.03;26.27
63115;BME280;49208;50.874;6.466;2023-07-08T14:29:17;100373.66;;;34.18;27.40
63115;BME280;49208;50.874;6.466;2023-07-08T14:31:43;100366.47;;;34.24;26.78
63115;BME280;49208;50.874;6.466;2023-07-08T14:34:17;100361.56;;;34.26;26.72
63115;BME280;49208;50.874;6.466;2023-07-08T14:36:46;100367.94;;;34.26;25.67
63115;BME280;49208;50.874;6.466;2023-07-08T14:39:17;100370.06;;;34.17;25.93
63115;BME280;49208;50.874;6.466;2023-07-08T14:41:43;100365.34;;;34.11;27.36
63115;BME280;49208;50.874;6.466;2023-07-08T14:44:52;100372.56;;;33.99;25.94
63115;BME280;49208;50.874;6.466;2023-07-08T14:47:12;100370.84;;;33.85;25.75
63115;BME280;49208;50.874;6.466;2023-07-08T14:49:38;100372.09;;;33.75;25.78
63115;BME280;49208;50.874;6.466;2023-07-08T14:52:04;100375.91;;;33.68;26.88
63115;BME280;49208;50.874;6.466;2023-07-08T14:54:29;100365.94;;;33.67;29.10
63115;BME280;49208;50.874;6.466;2023-07-08T14:56:56;100380.38;;;33.62;27.82
63115;BME280;49208;50.874;6.466;2023-07-08T14:59:23;100377.81;;;33.60;28.47
63115;BME280;49208;50.874;6.466;2023-07-08T15:01:50;100375.03;;;33.60;26.52
63115;BME280;49208;50.874;6.466;2023-07-08T15:04:17;100377.97;;;33.59;28.25
63115;BME280;49208;50.874;6.466;2023-07-08T15:06:44;100377.63;;;33.69;29.55
63115;BME280;49208;50.874;6.466;2023-07-08T15:09:10;100386.13;;;33.80;29.20
63115;BME280;49208;50.874;6.466;2023-07-08T15:11:36;100383.34;;;33.80;28.52
63115;BME280;49208;50.874;6.466;2023-07-08T15:14:09;100384.44;;;33.79;29.12
63115;BME280;49208;50.874;6.466;2023-07-08T15:16:38;100385.25;;;33.67;29.12
63115;BME280;49208;50.874;6.466;2023-07-08T15:19:10;100389.63;;;33.54;28.74
63115;BME280;49208;50.874;6.466;2023-07-08T15:21:37;100403.59;;;33.39;29.58
63115;BME280;49208;50.874;6.466;2023-07-08T15:24:02;100395.88;;;33.28;29.82
63115;BME280;49208;50.874;6.466;2023-07-08T15:26:28;100391.34;;;33.14;31.51
63115;BME280;49208;50.874;6.466;2023-07-08T15:28:53;100395.69;;;33.01;31.21
63115;BME280;49208;50.874;6.466;2023-07-08T15:31:25;100392.03;;;32.88;31.21
63115;BME280;49208;50.874;6.466;2023-07-08T15:33:53;100398.50;;;32.73;32.19
63115;BME280;49208;50.874;6.466;2023-07-08T15:36:19;100402.88;;;32.61;32.59
63115;BME280;49208;50.874;6.466;2023-07-08T15:38:45;100403.38;;;32.50;33.13
63115;BME280;49208;50.874;6.466;2023-07-08T15:41:23;100403.31;;;32.43;34.08
63115;BME280;49208;50.874;6.466;2023-07-08T15:43:52;100403.50;;;32.41;32.43
63115;BME280;49208;50.874;6.466;2023-07-08T15:46:18;100403.97;;;32.45;31.97
63115;BME280;49208;50.874;6.466;2023-07-08T15:48:44;100404.81;;;32.46;32.09
63115;BME280;49208;50.874;6.466;2023-07-08T15:51:18;100409.09;;;32.48;32.05
63115;BME280;49208;50.874;6.466;2023-07-08T15:53:44;100414.59;;;32.48;33.17
63115;BME280;49208;50.874;6.466;2023-07-08T15:56:14;100414.78;;;32.47;33.41
63115;BME280;49208;50.874;6.466;2023-07-08T15:58:42;100416.72;;;32.46;33.75
63115;BME280;49208;50.874;6.466;2023-07-08T16:01:13;100417.56;;;32.47;34.11
63115;BME280;49208;50.874;6.466;2023-07-08T16:03:41;100415.66;;;32.47;33.34
63115;BME280;49208;50.874;6.466;2023-07-08T16:06:08;100419.25;;;32.48;33.89
63115;BME280;49208;50.874;6.466;2023-07-08T16:08:33;100417.13;;;32.50;33.34
63115;BME280;49208;50.874;6.466;2023-07-08T16:11:03;100416.28;;;32.49;33.23
63115;BME280;49208;50.874;6.466;2023-07-08T16:13:32;100420.34;;;32.53;32.37
63115;BME280;49208;50.874;6.466;2023-07-08T16:15:59;100421.03;;;32.55;33.42
63115;BME280;49208;50.874;6.466;2023-07-08T16:18:25;100428.72;;;32.60;34.47
63115;BME280;49208;50.874;6.466;2023-07-08T16:20:50;100436.59;;;32.63;35.77
63115;BME280;49208;50.874;6.466;2023-07-08T16:23:16;100436.53;;;32.85;35.62
63115;BME280;49208;50.874;6.466;2023-07-08T16:25:45;100455.06;;;32.97;31.81
63115;BME280;49208;50.874;6.466;2023-07-08T16:28:19;100443.78;;;32.86;28.54
63115;BME280;49208;50.874;6.466;2023-07-08T16:30:47;100435.84;;;32.76;28.12
63115;BME280;49208;50.874;6.466;2023-07-08T16:33:12;100442.34;;;32.68;29.90
63115;BME280;49208;50.874;6.466;2023-07-08T16:35:38;100436.84;;;32.68;30.72
63115;BME280;49208;50.874;6.466;2023-07-08T16:38:03;100433.09;;;32.76;29.24
63115;BME280;49208;50.874;6.466;2023-07-08T16:40:29;100434.25;;;32.88;29.05
63115;BME280;49208;50.874;6.466;2023-07-08T16:42:55;100430.38;;;32.82;26.77
63115;BME280;49208;50.874;6.466;2023-07-08T16:45:22;100421.72;;;32.86;26.00
63115;BME280;49208;50.874;6.466;2023-07-08T16:47:49;100420.16;;;32.76;24.31
63115;BME280;49208;50.874;6.466;2023-07-08T16:50:17;100414.59;;;32.70;24.99
63115;BME280;49208;50.874;6.466;2023-07-08T16:52:43;100413.25;;;32.59;25.71
63115;BME280;49208;50.874;6.466;2023-07-08T16:57:35;100415.91;;;32.31;27.53
63115;BME280;49208;50.874;6.466;2023-07-08T17:00:01;100417.31;;;32.20;28.37
63115;BME280;49208;50.874;6.466;2023-07-08T17:02:28;100409.16;;;32.12;27.69
63115;BME280;49208;50.874;6.466;2023-07-08T17:04:54;100411.22;;;32.03;27.51
63115;BME280;49208;50.874;6.466;2023-07-08T17:07:22;100412.38;;;31.94;27.96
63115;BME280;49208;50.874;6.466;2023-07-08T17:09:47;100409.44;;;31.80;28.64
63115;BME280;49208;50.874;6.466;2023-07-08T17:12:13;100410.16;;;31.68;28.21
63115;BME280;49208;50.874;6.466;2023-07-08T17:14:39;100406.78;;;31.51;28.41
63115;BME280;49208;50.874;6.466;2023-07-08T17:17:06;100402.13;;;31.36;28.67
63115;BME280;49208;50.874;6.466;2023-07-08T17:19:35;100404.69;;;31.23;29.22
63115;BME280;49208;50.874;6.466;2023-07-08T17:22:00;100399.66;;;31.12;30.36
63115;BME280;49208;50.874;6.466;2023-07-08T17:24:26;100398.72;;;31.05;30.99
63115;BME280;49208;50.874;6.466;2023-07-08T17:26:51;100389.34;;;30.99;30.34
63115;BME280;49208;50.874;6.466;2023-07-08T17:29:16;100396.94;;;30.97;33.10
63115;BME280;49208;50.874;6.466;2023-07-08T17:31:43;100400.59;;;30.89;33.39
63115;BME280;49208;50.874;6.466;2023-07-08T17:34:24;100400.47;;;30.82;33.77
63115;BME280;49208;50.874;6.466;2023-07-08T17:36:50;100401.59;;;30.73;34.28
63115;BME280;49208;50.874;6.466;2023-07-08T17:39:19;100396.00;;;30.67;34.69
63115;BME280;49208;50.874;6.466;2023-07-08T17:41:44;100390.59;;;30.58;35.51
63115;BME280;49208;50.874;6.466;2023-07-08T17:44:14;100400.44;;;30.53;35.49
63115;BME280;49208;50.874;6.466;2023-07-08T17:46:39;100402.03;;;30.47;36.28
63115;BME280;49208;50.874;6.466;2023-07-08T17:49:08;100402.59;;;30.42;36.71
63115;BME280;49208;50.874;6.466;2023-07-08T17:51:35;100408.28;;;30.41;37.43
63115;BME280;49208;50.874;6.466;2023-07-08T17:54:01;100418.41;;;30.40;38.24
63115;BME280;49208;50.874;6.466;2023-07-08T17:56:30;100420.78;;;30.44;38.17
63115;BME280;49208;50.874;6.466;2023-07-08T17:58:56;100417.66;;;30.47;38.77
63115;BME280;49208;50.874;6.466;2023-07-08T18:01:25;100422.97;;;30.48;39.85
63115;BME280;49208;50.874;6.466;2023-07-08T18:03:51;100427.44;;;30.49;40.67
63115;BME280;49208;50.874;6.466;2023-07-08T18:06:17;100435.50;;;30.51;41.36
63115;BME280;49208;50.874;6.466;2023-07-08T18:08:42;100430.84;;;30.51;41.94
63115;BME280;49208;50.874;6.466;2023-07-08T18:11:12;100439.25;;;30.50;43.42
63115;BME280;49208;50.874;6.466;2023-07-08T18:13:38;100445.31;;;30.45;43.35
63115;BME280;49208;50.874;6.466;2023-07-08T18:16:10;100448.63;;;30.40;43.90
63115;BME280;49208;50.874;6.466;2023-07-08T18:18:36;100441.13;;;30.34;44.31
63115;BME280;49208;50.874;6.466;2023-07-08T18:21:02;100449.19;;;30.28;44.30
63115;BME280;49208;50.874;6.466;2023-07-08T18:23:31;100451.34;;;30.17;44.44
63115;BME280;49208;50.874;6.466;2023-07-08T18:25:59;100444.69;;;30.12;44.50
63115;BME280;49208;50.874;6.466;2023-07-08T18:28:24;100449.19;;;30.05;45.08
63115;BME280;49208;50.874;6.466;2023-07-08T18:30:51;100448.56;;;29.94;46.23
63115;BME280;49208;50.874;6.466;2023-07-08T18:33:17;100452.56;;;29.84;45.69
63115;BME280;49208;50.874;6.466;2023-07-08T18:35:45;100462.06;;;29.73;47.93
63115;BME280;49208;50.874;6.466;2023-07-08T18:38:11;100456.28;;;29.59;48.11
63115;BME280;49208;50.874;6.466;2023-07-08T18:40:38;100469.84;;;29.45;48.38
63115;BME280;49208;50.874;6.466;2023-07-08T18:43:14;100463.03;;;29.32;48.14
63115;BME280;49208;50.874;6.466;2023-07-08T18:45:41;100467.38;;;29.18;48.80
63115;BME280;49208;50.874;6.466;2023-07-08T18:48:12;100474.91;;;29.08;49.47
63115;BME280;49208;50.874;6.466;2023-07-08T18:50:38;100478.53;;;28.92;50.14
63115;BME280;49208;50.874;6.466;2023-07-08T18:53:11;100480.13;;;28.78;50.31
63115;BME280;49208;50.874;6.466;2023-07-08T18:55:36;100486.97;;;28.66;50.62
63115;BME280;49208;50.874;6.466;2023-07-08T18:58:02;100478.22;;;28.54;50.60
63115;BME280;49208;50.874;6.466;2023-07-08T19:00:27;100484.66;;;28.45;50.47
63115;BME280;49208;50.874;6.466;2023-07-08T19:02:55;100483.13;;;28.34;50.79
63115;BME280;49208;50.874;6.466;2023-07-08T19:05:22;100490.63;;;28.24;51.41
63115;BME280;49208;50.874;6.466;2023-07-08T19:07:48;100494.72;;;28.12;51.49
63115;BME280;49208;50.874;6.466;2023-07-08T19:10:15;100496.25;;;27.98;53.02
63115;BME280;49208;50.874;6.466;2023-07-08T19:12:42;100495.81;;;27.85;53.01
63115;BME280;49208;50.874;6.466;2023-07-08T19:17:41;100508.53;;;27.59;52.49
63115;BME280;49208;50.874;6.466;2023-07-08T19:20:08;100508.00;;;27.48;53.22
63115;BME280;49208;50.874;6.466;2023-07-08T19:22:33;100512.88;;;27.36;53.32
63115;BME280;49208;50.874;6.466;2023-07-08T19:24:59;100514.16;;;27.24;53.56
63115;BME280;49208;50.874;6.466;2023-07-08T19:27:24;100505.34;;;27.12;53.77
63115;BME280;49208;50.874;6.466;2023-07-08T19:29:52;100519.44;;;26.99;53.98
63115;BME280;49208;50.874;6.466;2023-07-08T19:32:18;100519.69;;;26.88;54.00
63115;BME280;49208;50.874;6.466;2023-07-08T19:34:45;100520.78;;;26.77;53.88
63115;BME280;49208;50.874;6.466;2023-07-08T19:37:15;100538.44;;;26.65;54.81
63115;BME280;49208;50.874;6.466;2023-07-08T19:39:41;100535.22;;;26.51;56.10
63115;BME280;49208;50.874;6.466;2023-07-08T19:42:15;100542.94;;;26.38;56.87
63115;BME280;49208;50.874;6.466;2023-07-08T19:44:42;100544.97;;;26.36;54.25
63115;BME280;49208;50.874;6.466;2023-07-08T19:47:11;100548.84;;;26.33;53.61